createdAt,value
2017-09-04T00:01:16.017Z,12.70
2017-09-04T00:03:44.864Z,12.60
2017-09-04T00:06:13.722Z,12.60
2017-09-04T00:08:42.566Z,12.60
2017-09-04T00:11:11.419Z,12.60
2017-09-04T00:13:40.068Z,12.60
2017-09-04T00:16:08.929Z,12.60
2017-09-04T00:18:37.767Z,12.60
2017-09-04T00:21:06.619Z,12.60
2017-09-04T00:23:35.476Z,12.60
2017-09-04T00:26:04.316Z,12.50
2017-09-04T00:28:33.161Z,12.50
2017-09-04T00:31:02.021Z,12.50
2017-09-04T00:33:30.877Z,12.50
2017-09-04T00:35:59.743Z,12.50
2017-09-04T00:38:28.601Z,12.40
2017-09-04T00:40:57.452Z,12.50
2017-09-04T00:43:26.283Z,12.40
2017-09-04T00:45:55.119Z,12.40
2017-09-04T00:48:23.995Z,12.40
2017-09-04T00:50:52.865Z,12.40
2017-09-04T00:53:21.734Z,12.40
2017-09-04T00:55:50.613Z,12.40
2017-09-04T00:58:20.015Z,12.40
2017-09-04T01:00:48.857Z,12.40
2017-09-04T01:03:17.721Z,12.40
2017-09-04T01:05:46.209Z,12.40
2017-09-04T01:08:15.067Z,12.30
2017-09-04T01:10:43.911Z,12.30
2017-09-04T01:13:12.748Z,12.30
2017-09-04T01:15:41.250Z,12.30
2017-09-04T01:18:10.086Z,12.20
2017-09-04T01:20:38.943Z,12.20
2017-09-04T01:23:07.783Z,12.20
2017-09-04T01:25:36.640Z,12.20
2017-09-04T01:28:05.494Z,12.20
2017-09-04T01:30:34.687Z,12.20
2017-09-04T01:33:03.383Z,12.10
2017-09-04T01:35:32.225Z,12.10
2017-09-04T01:38:01.182Z,12.10
2017-09-04T01:40:30.064Z,12.00
2017-09-04T01:42:58.926Z,12.00
2017-09-04T01:45:27.782Z,12.00
2017-09-04T01:47:56.630Z,12.00
2017-09-04T01:50:25.474Z,12.00
2017-09-04T01:52:54.018Z,12.00
2017-09-04T01:55:22.876Z,12.00
2017-09-04T01:57:51.719Z,12.00
2017-09-04T02:00:20.329Z,12.00
2017-09-04T02:02:49.168Z,12.00
2017-09-04T02:05:18.018Z,11.90
2017-09-04T02:07:46.882Z,11.90
2017-09-04T02:10:16.300Z,11.90
2017-09-04T02:12:44.955Z,11.80
2017-09-04T02:15:13.803Z,11.90
2017-09-04T02:17:42.648Z,11.90
2017-09-04T02:20:12.260Z,11.80
2017-09-04T02:22:41.096Z,11.80
2017-09-04T02:25:09.936Z,11.80
2017-09-04T02:27:38.772Z,11.80
2017-09-04T02:30:07.636Z,11.80
2017-09-04T02:32:36.487Z,11.80
2017-09-04T02:35:05.344Z,11.70
2017-09-04T02:37:34.176Z,11.70
2017-09-04T02:40:03.030Z,11.60
2017-09-04T02:42:31.891Z,11.60
2017-09-04T02:45:00.738Z,11.60
2017-09-04T02:47:29.600Z,11.60
2017-09-04T02:49:58.449Z,11.60
2017-09-04T02:52:27.305Z,11.60
2017-09-04T02:54:56.162Z,11.50
2017-09-04T02:57:25.016Z,11.50
2017-09-04T02:59:53.865Z,11.50
2017-09-04T03:02:22.701Z,11.50
2017-09-04T03:04:51.549Z,11.40
2017-09-04T03:07:20.386Z,11.40
2017-09-04T03:09:49.995Z,11.30
2017-09-04T03:12:18.505Z,11.30
2017-09-04T03:14:48.168Z,11.30
2017-09-04T03:17:17.025Z,11.30
2017-09-04T03:19:45.928Z,11.30
2017-09-04T03:22:14.783Z,11.30
2017-09-04T03:24:43.315Z,11.20
2017-09-04T03:27:11.473Z,11.30
2017-09-04T03:29:39.983Z,11.20
2017-09-04T03:32:08.492Z,11.20
2017-09-04T03:34:37.335Z,11.20
2017-09-04T03:37:05.492Z,11.20
2017-09-04T03:39:33.464Z,11.20
2017-09-04T03:42:01.420Z,11.20
2017-09-04T03:44:29.384Z,11.20
2017-09-04T03:46:57.696Z,11.20
2017-09-04T03:49:26.011Z,11.20
2017-09-04T03:51:54.667Z,11.20
2017-09-04T03:54:22.984Z,11.20
2017-09-04T03:56:50.951Z,11.20
2017-09-04T03:59:19.440Z,11.10
2017-09-04T04:01:47.602Z,11.10
2017-09-04T04:04:16.118Z,11.10
2017-09-04T04:06:44.622Z,11.10
2017-09-04T04:09:13.127Z,11.00
2017-09-04T04:11:41.289Z,11.00
2017-09-04T04:14:09.793Z,11.00
2017-09-04T04:16:38.651Z,11.00
2017-09-04T04:19:07.497Z,11.00
2017-09-04T04:21:36.349Z,11.00
2017-09-04T04:24:05.213Z,11.00
2017-09-04T04:26:34.047Z,10.90
2017-09-04T04:29:02.893Z,10.90
2017-09-04T04:31:31.051Z,10.90
2017-09-04T04:33:59.911Z,10.90
2017-09-04T04:36:28.747Z,10.90
2017-09-04T04:38:57.583Z,10.90
2017-09-04T04:41:26.433Z,10.90
2017-09-04T04:43:55.304Z,10.90
2017-09-04T04:46:24.180Z,10.90
2017-09-04T04:48:53.026Z,10.90
2017-09-04T04:51:21.667Z,10.90
2017-09-04T04:53:50.509Z,10.90
2017-09-04T04:56:19.347Z,10.90
2017-09-04T04:58:48.205Z,10.90
2017-09-04T05:01:17.069Z,10.90
2017-09-04T05:03:45.912Z,10.90
2017-09-04T05:06:15.536Z,10.90
2017-09-04T05:08:44.373Z,10.80
2017-09-04T05:11:13.229Z,10.90
2017-09-04T05:13:42.820Z,10.90
2017-09-04T05:16:11.700Z,10.90
2017-09-04T05:18:40.557Z,10.90
2017-09-04T05:21:09.396Z,10.90
2017-09-04T05:23:38.245Z,10.90
2017-09-04T05:26:07.085Z,10.90
2017-09-04T05:28:35.961Z,11.00
2017-09-04T05:31:04.791Z,11.00
2017-09-04T05:33:33.643Z,11.10
2017-09-04T05:36:03.248Z,11.10
2017-09-04T05:38:32.110Z,11.10
2017-09-04T05:41:00.956Z,11.20
2017-09-04T05:43:29.796Z,11.20
2017-09-04T05:45:58.635Z,11.20
2017-09-04T05:48:27.188Z,11.20
2017-09-04T05:50:56.041Z,11.20
2017-09-04T05:53:24.880Z,11.30
2017-09-04T05:55:53.728Z,11.30
2017-09-04T05:58:22.563Z,11.40
2017-09-04T06:00:51.440Z,11.40
2017-09-04T06:03:20.276Z,11.40
2017-09-04T06:05:49.126Z,11.50
2017-09-04T06:08:17.976Z,11.50
2017-09-04T06:10:46.819Z,11.60
2017-09-04T06:13:15.682Z,11.70
2017-09-04T06:15:44.566Z,11.70
2017-09-04T06:18:13.397Z,11.70
2017-09-04T06:20:42.241Z,11.80
2017-09-04T06:23:11.076Z,11.90
2017-09-04T06:25:39.939Z,12.00
2017-09-04T06:28:08.818Z,12.10
2017-09-04T06:30:37.671Z,12.20
2017-09-04T06:33:06.525Z,12.30
2017-09-04T06:35:35.373Z,12.40
2017-09-04T06:38:04.234Z,12.50
2017-09-04T06:40:33.083Z,12.60
2017-09-04T06:43:01.920Z,12.70
2017-09-04T06:45:30.783Z,12.80
2017-09-04T06:47:59.663Z,13.00
2017-09-04T06:50:28.323Z,13.10
2017-09-04T06:52:57.168Z,13.20
2017-09-04T06:55:26.006Z,13.20
2017-09-04T06:57:54.875Z,13.30
2017-09-04T07:00:23.536Z,13.40
2017-09-04T07:02:52.394Z,13.50
2017-09-04T07:05:21.231Z,13.70
2017-09-04T07:07:50.109Z,13.80
2017-09-04T07:10:18.952Z,14.00
2017-09-04T07:12:47.811Z,14.10
2017-09-04T07:15:16.669Z,14.20
2017-09-04T07:17:45.501Z,14.40
2017-09-04T07:20:14.351Z,14.50
2017-09-04T07:22:43.229Z,14.60
2017-09-04T07:25:12.093Z,14.70
2017-09-04T07:27:40.961Z,14.80
2017-09-04T07:30:10.157Z,15.00
2017-09-04T07:32:39.005Z,15.20
2017-09-04T07:35:07.880Z,15.20
2017-09-04T07:37:37.517Z,15.50
2017-09-04T07:40:06.366Z,15.50
2017-09-04T07:42:35.219Z,15.60
2017-09-04T07:45:04.071Z,15.70
2017-09-04T07:47:32.921Z,15.80
2017-09-04T07:50:01.777Z,15.90
2017-09-04T07:52:30.651Z,16.10
2017-09-04T07:54:59.528Z,16.30
2017-09-04T07:57:28.376Z,16.30
2017-09-04T07:59:56.901Z,16.50
2017-09-04T08:02:26.531Z,16.70
2017-09-04T08:04:55.400Z,16.70
2017-09-04T08:07:24.055Z,16.90
2017-09-04T08:09:52.903Z,17.10
2017-09-04T08:12:21.760Z,17.20
2017-09-04T08:14:50.416Z,17.50
2017-09-04T08:17:19.271Z,17.70
2017-09-04T08:19:48.127Z,17.80
2017-09-04T08:22:16.983Z,17.90
2017-09-04T08:24:46.117Z,18.20
2017-09-04T08:27:14.970Z,18.30
2017-09-04T08:29:43.812Z,18.40
2017-09-04T08:32:12.673Z,18.40
2017-09-04T08:34:42.967Z,18.60
2017-09-04T08:37:11.826Z,18.60
2017-09-04T08:39:40.690Z,18.60
2017-09-04T08:42:09.533Z,18.70
2017-09-04T08:44:38.196Z,18.70
2017-09-04T08:47:07.053Z,18.80
2017-09-04T08:49:36.539Z,19.00
2017-09-04T08:52:05.405Z,19.00
2017-09-04T08:54:34.286Z,18.90
2017-09-04T08:57:03.131Z,19.00
2017-09-04T08:59:31.998Z,19.10
2017-09-04T09:02:00.156Z,19.30
2017-09-04T09:04:28.801Z,19.50
2017-09-04T09:06:58.409Z,19.60
2017-09-04T09:09:28.034Z,19.50
2017-09-04T09:11:56.893Z,19.50
2017-09-04T09:14:26.197Z,19.80
2017-09-04T09:16:55.748Z,20.00
2017-09-04T09:19:24.609Z,20.00
2017-09-04T09:21:53.469Z,20.00
2017-09-04T09:24:22.148Z,20.10
2017-09-04T09:26:50.803Z,20.30
2017-09-04T09:29:19.487Z,20.50
2017-09-04T09:31:48.158Z,20.50
2017-09-04T09:34:17.018Z,20.50
2017-09-04T09:36:45.858Z,20.50
2017-09-04T09:39:14.714Z,20.60
2017-09-04T09:41:43.565Z,20.60
2017-09-04T09:44:12.426Z,20.20
2017-09-04T09:49:16.377Z,20.40
2017-09-04T09:51:45.832Z,20.20
2017-09-04T09:54:14.512Z,20.20
2017-09-04T09:56:43.172Z,20.40
2017-09-04T09:59:11.823Z,20.50
2017-09-04T10:01:40.517Z,20.70
2017-09-04T10:04:09.180Z,20.90
2017-09-04T10:06:37.853Z,21.10
2017-09-04T10:09:06.538Z,21.30
2017-09-04T10:11:35.209Z,21.30
2017-09-04T10:14:03.872Z,21.10
2017-09-04T10:16:32.528Z,20.90
2017-09-04T10:19:01.215Z,20.60
2017-09-04T10:21:29.903Z,20.30
2017-09-04T10:23:58.548Z,20.20
2017-09-04T10:26:27.213Z,20.00
2017-09-04T10:28:55.885Z,20.20
2017-09-04T10:31:24.585Z,20.50
2017-09-04T10:33:53.236Z,20.80
2017-09-04T10:36:21.908Z,20.80
2017-09-04T10:38:50.576Z,20.80
2017-09-04T10:41:19.238Z,20.90
2017-09-04T10:43:47.599Z,21.00
2017-09-04T10:46:17.084Z,21.00
2017-09-04T10:48:45.740Z,20.90
2017-09-04T10:51:14.410Z,20.70
2017-09-04T10:53:43.059Z,20.80
2017-09-04T10:56:11.934Z,20.90
2017-09-04T10:58:41.584Z,21.10
2017-09-04T11:01:11.010Z,21.00
2017-09-04T11:03:39.728Z,20.90
2017-09-04T11:06:08.597Z,20.70
2017-09-04T11:08:37.453Z,20.70
2017-09-04T11:11:06.499Z,20.80
2017-09-04T11:13:35.165Z,21.20
2017-09-04T11:16:03.842Z,21.40
2017-09-04T11:18:33.273Z,21.40
2017-09-04T11:21:01.952Z,21.40
2017-09-04T11:23:30.643Z,21.50
2017-09-04T11:25:59.051Z,21.60
2017-09-04T11:28:27.715Z,21.50
2017-09-04T11:30:56.110Z,21.40
2017-09-04T11:33:24.776Z,21.30
2017-09-04T11:35:53.444Z,21.40
2017-09-04T11:38:23.070Z,21.30
2017-09-04T11:40:51.934Z,21.30
2017-09-04T11:43:20.809Z,21.30
2017-09-04T11:45:49.729Z,21.30
2017-09-04T11:48:18.597Z,21.40
2017-09-04T11:50:47.440Z,21.40
2017-09-04T11:53:16.093Z,21.70
2017-09-04T11:55:44.944Z,22.00
2017-09-04T11:58:13.790Z,22.30
2017-09-04T12:00:42.473Z,22.50
2017-09-04T12:03:11.326Z,22.70
2017-09-04T12:05:40.190Z,22.90
2017-09-04T12:08:08.844Z,22.90
2017-09-04T12:10:37.504Z,22.80
2017-09-04T12:13:06.949Z,23.20
2017-09-04T12:15:35.801Z,23.20
2017-09-04T12:18:04.648Z,23.30
2017-09-04T12:20:33.501Z,23.30
2017-09-04T12:23:02.151Z,23.50
2017-09-04T12:25:30.831Z,23.30
2017-09-04T12:27:59.504Z,22.80
2017-09-04T12:30:28.363Z,22.50
2017-09-04T12:32:57.218Z,22.20
2017-09-04T12:35:26.068Z,22.20
2017-09-04T12:37:54.929Z,22.40
2017-09-04T12:40:23.781Z,22.60
2017-09-04T12:42:52.639Z,22.60
2017-09-04T12:45:21.489Z,22.80
2017-09-04T12:47:50.337Z,23.00
2017-09-04T12:50:18.999Z,23.30
2017-09-04T12:52:47.852Z,23.30
2017-09-04T12:55:16.679Z,23.50
2017-09-04T12:57:45.528Z,23.60
2017-09-04T13:00:14.385Z,23.60
2017-09-04T13:02:43.241Z,23.90
2017-09-04T13:05:11.908Z,23.90
2017-09-04T13:07:40.571Z,23.70
2017-09-04T13:10:14.913Z,23.80
2017-09-04T13:12:43.585Z,24.20
2017-09-04T13:15:17.930Z,24.50
2017-09-04T13:20:59.271Z,24.40
2017-09-04T13:23:33.600Z,24.60
2017-09-04T13:26:07.887Z,24.60
2017-09-04T13:28:52.236Z,24.60
2017-09-04T13:31:21.831Z,24.20
2017-09-04T13:33:56.078Z,24.20
2017-09-04T13:36:41.433Z,24.50
2017-09-04T13:39:15.872Z,24.70
2017-09-04T13:41:50.301Z,24.60
2017-09-04T13:44:24.575Z,24.30
2017-09-04T13:47:12.493Z,24.10
2017-09-04T13:49:42.105Z,24.10
2017-09-04T13:52:16.583Z,24.10
2017-09-04T13:55:02.927Z,24.20
2017-09-04T14:00:43.671Z,24.50
2017-09-04T14:03:27.966Z,24.30
2017-09-04T14:06:02.258Z,24.00
2017-09-04T14:08:36.455Z,23.60
2017-09-04T14:11:24.820Z,23.50
2017-09-04T14:13:59.334Z,23.60
2017-09-04T14:16:46.881Z,23.70
2017-09-04T14:19:15.757Z,24.00
2017-09-04T14:21:44.429Z,24.00
2017-09-04T14:24:13.088Z,23.90
2017-09-04T14:26:42.437Z,23.80
2017-09-04T14:29:11.128Z,23.60
2017-09-04T14:31:39.788Z,23.50
2017-09-04T14:34:08.458Z,23.50
2017-09-04T14:36:37.308Z,23.60
2017-09-04T14:39:06.005Z,23.40
2017-09-04T14:41:34.671Z,23.50
2017-09-04T14:44:13.269Z,23.50
2017-09-04T14:46:48.093Z,23.50
2017-09-04T14:49:16.756Z,23.60
2017-09-04T14:51:45.424Z,23.60
2017-09-04T14:54:14.094Z,23.70
2017-09-04T14:56:43.251Z,23.80
2017-09-04T14:59:11.915Z,24.00
2017-09-04T15:01:41.529Z,23.80
2017-09-04T15:04:10.397Z,23.80
2017-09-04T15:06:39.063Z,23.70
2017-09-04T15:09:07.737Z,23.90
2017-09-04T15:11:36.416Z,23.70
2017-09-04T15:14:05.307Z,23.70
2017-09-04T15:16:33.998Z,23.70
2017-09-04T15:19:02.670Z,23.80
2017-09-04T15:21:31.343Z,23.90
2017-09-04T15:24:00.955Z,23.80
2017-09-04T15:26:29.635Z,23.80
2017-09-04T15:28:58.295Z,23.70
2017-09-04T15:31:26.954Z,23.50
2017-09-04T15:33:55.611Z,23.30
2017-09-04T15:36:24.277Z,23.10
2017-09-04T15:38:52.932Z,22.90
2017-09-04T15:41:21.591Z,22.80
2017-09-04T15:43:50.262Z,23.00
2017-09-04T15:46:18.936Z,22.90
2017-09-04T15:48:47.596Z,22.90
2017-09-04T15:51:16.271Z,22.90
2017-09-04T15:53:44.947Z,22.90
2017-09-04T15:56:13.614Z,22.80
2017-09-04T15:58:42.284Z,22.80
2017-09-04T16:01:10.948Z,22.90
2017-09-04T16:03:39.635Z,22.90
2017-09-04T16:06:18.233Z,22.70
2017-09-04T16:08:46.925Z,22.70
2017-09-04T16:11:15.589Z,22.80
2017-09-04T16:13:58.139Z,22.70
2017-09-04T16:16:27.605Z,22.50
2017-09-04T16:18:56.753Z,22.40
2017-09-04T16:21:32.971Z,22.30
2017-09-04T16:24:04.620Z,22.30
2017-09-04T16:26:34.266Z,22.30
2017-09-04T16:29:13.655Z,22.10
2017-09-04T16:32:00.060Z,22.00
2017-09-04T16:34:34.350Z,22.00
2017-09-04T16:37:18.378Z,21.90
2017-09-04T16:39:47.083Z,21.80
2017-09-04T16:42:34.572Z,21.80
2017-09-04T16:45:19.121Z,21.70
2017-09-04T16:47:47.777Z,21.60
2017-09-04T16:50:17.209Z,21.50
2017-09-04T16:53:01.665Z,21.50
2017-09-04T16:55:30.328Z,21.40
2017-09-04T16:57:59.937Z,21.40
2017-09-04T17:00:28.609Z,21.40
2017-09-04T17:02:57.634Z,21.40
2017-09-04T17:05:26.313Z,21.40
2017-09-04T17:07:54.985Z,21.30
2017-09-04T17:10:26.453Z,21.30
2017-09-04T17:12:55.182Z,21.10
2017-09-04T17:15:24.629Z,21.10
2017-09-04T17:18:03.202Z,21.10
2017-09-04T17:20:32.324Z,21.00
2017-09-04T17:23:01.474Z,21.00
2017-09-04T17:25:40.851Z,20.90
2017-09-04T17:28:09.177Z,20.80
2017-09-04T17:30:37.843Z,20.80
2017-09-04T17:33:07.545Z,20.70
2017-09-04T17:35:51.098Z,20.70
2017-09-04T17:38:19.764Z,20.70
2017-09-04T17:40:48.487Z,20.70
2017-09-04T17:43:18.059Z,20.60
2017-09-04T17:45:46.744Z,20.60
2017-09-04T17:48:15.446Z,20.50
2017-09-04T17:50:44.130Z,20.50
2017-09-04T17:53:12.812Z,20.40
2017-09-04T17:55:41.478Z,20.40
2017-09-04T17:58:10.166Z,20.30
2017-09-04T18:00:39.360Z,20.20
2017-09-04T18:03:08.216Z,20.10
2017-09-04T18:05:37.064Z,20.10
2017-09-04T18:08:05.948Z,20.10
2017-09-04T18:10:34.817Z,20.00
2017-09-04T18:13:03.657Z,19.90
2017-09-04T18:15:32.520Z,19.80
2017-09-04T18:18:01.367Z,19.70
2017-09-04T18:20:30.820Z,19.50
2017-09-04T18:22:59.490Z,19.50
2017-09-04T18:25:28.328Z,19.50
2017-09-04T18:27:57.178Z,19.50
2017-09-04T18:30:26.044Z,19.50
2017-09-04T18:32:54.701Z,19.50
2017-09-04T18:35:23.538Z,19.50
2017-09-04T18:37:52.418Z,19.50
2017-09-04T18:40:21.279Z,19.40
2017-09-04T18:42:49.970Z,19.40
2017-09-04T18:45:18.643Z,19.40
2017-09-04T18:47:47.296Z,19.30
2017-09-04T18:50:15.952Z,19.20
2017-09-04T18:52:44.612Z,19.20
2017-09-04T18:55:14.075Z,19.20
2017-09-04T18:57:42.732Z,19.20
2017-09-04T19:00:12.325Z,19.10
2017-09-04T19:02:41.167Z,19.10
2017-09-04T19:05:09.846Z,19.10
2017-09-04T19:07:38.516Z,18.90
2017-09-04T19:10:07.376Z,18.90
2017-09-04T19:12:36.322Z,18.90
2017-09-04T19:15:04.976Z,18.90
2017-09-04T19:17:33.635Z,18.90
2017-09-04T19:20:02.314Z,18.80
2017-09-04T19:22:31.156Z,18.80
2017-09-04T19:24:59.908Z,18.90
2017-09-04T19:27:28.572Z,18.80
2017-09-04T19:29:57.226Z,18.70
2017-09-04T19:32:25.900Z,18.60
2017-09-04T19:34:54.757Z,18.60
2017-09-04T19:37:23.412Z,18.60
2017-09-04T19:39:52.066Z,18.60
2017-09-04T19:42:20.729Z,18.50
2017-09-04T19:44:49.407Z,18.50
2017-09-04T19:47:18.060Z,18.40
2017-09-04T19:49:46.943Z,18.30
2017-09-04T19:52:15.622Z,18.20
2017-09-04T19:54:44.373Z,18.10
2017-09-04T19:57:13.024Z,18.10
2017-09-04T19:59:41.703Z,18.10
2017-09-04T20:02:10.368Z,18.00
2017-09-04T20:04:39.019Z,18.00
2017-09-04T20:07:09.042Z,18.00
2017-09-04T20:09:37.742Z,17.90
2017-09-04T20:12:06.403Z,17.80
2017-09-04T20:14:35.061Z,17.70
2017-09-04T20:17:03.733Z,17.70
2017-09-04T20:19:32.402Z,17.70
2017-09-04T20:22:01.421Z,17.70
2017-09-04T20:24:30.088Z,17.60
2017-09-04T20:26:59.227Z,17.50
2017-09-04T20:29:28.077Z,17.40
2017-09-04T20:31:56.933Z,17.30
2017-09-04T20:34:25.788Z,17.20
2017-09-04T20:36:54.641Z,17.10
2017-09-04T20:39:23.546Z,17.00
2017-09-04T20:41:52.416Z,16.90
2017-09-04T20:44:21.111Z,16.70
2017-09-04T20:46:49.975Z,16.70
2017-09-04T20:49:19.566Z,16.70
2017-09-04T20:51:48.232Z,16.70
2017-09-04T20:54:17.142Z,16.60
2017-09-04T20:56:45.998Z,16.60
2017-09-04T20:59:14.657Z,16.60
2017-09-04T21:01:43.525Z,16.50
2017-09-04T21:04:12.193Z,16.50
2017-09-04T21:06:41.038Z,16.40
2017-09-04T21:09:09.707Z,16.40
2017-09-04T21:11:38.365Z,16.30
2017-09-04T21:14:07.035Z,16.30
2017-09-04T21:16:35.709Z,16.20
2017-09-04T21:19:04.380Z,16.10
2017-09-04T21:21:33.997Z,16.10
2017-09-04T21:24:02.669Z,16.10
2017-09-04T21:26:31.332Z,16.00
2017-09-04T21:28:59.987Z,15.70
2017-09-04T21:31:28.651Z,15.60
2017-09-04T21:33:57.316Z,15.70
2017-09-04T21:36:26.005Z,15.70
2017-09-04T21:38:54.667Z,15.70
2017-09-04T21:41:23.347Z,15.70
2017-09-04T21:43:52.003Z,15.70
2017-09-04T21:46:20.874Z,15.70
2017-09-04T21:48:49.739Z,15.70
2017-09-04T21:51:18.632Z,15.70
2017-09-04T21:53:47.485Z,15.60
2017-09-04T21:56:16.363Z,15.60
2017-09-04T21:58:45.230Z,15.60
2017-09-04T22:01:14.090Z,15.60
2017-09-04T22:03:42.952Z,15.60
2017-09-04T22:06:11.812Z,15.50
2017-09-04T22:08:40.670Z,15.50
2017-09-04T22:11:09.534Z,15.50
2017-09-04T22:13:38.371Z,15.40
2017-09-04T22:16:07.201Z,15.40
2017-09-04T22:18:36.065Z,15.40
2017-09-04T22:21:08.929Z,15.30
2017-09-04T22:23:37.801Z,15.30
2017-09-04T22:26:06.470Z,15.30
2017-09-04T22:28:35.317Z,15.30
2017-09-04T22:31:03.977Z,15.30
2017-09-04T22:33:32.631Z,15.20
2017-09-04T22:36:01.305Z,15.10
2017-09-04T22:38:29.988Z,15.10
2017-09-04T22:40:58.833Z,15.00
2017-09-04T22:43:27.693Z,15.00
2017-09-04T22:45:56.374Z,15.00
2017-09-04T22:48:25.049Z,15.00
2017-09-04T22:50:53.729Z,15.00
2017-09-04T22:53:22.387Z,15.00
2017-09-04T22:55:51.043Z,14.90
2017-09-04T22:58:20.168Z,14.90
2017-09-04T23:00:48.157Z,14.90
2017-09-04T23:03:16.833Z,14.90
2017-09-04T23:05:45.509Z,14.80
2017-09-04T23:08:14.179Z,14.80
2017-09-04T23:10:42.891Z,14.80
2017-09-04T23:13:11.551Z,14.80
2017-09-04T23:15:40.443Z,14.80
2017-09-04T23:18:09.119Z,14.80
2017-09-04T23:20:37.788Z,14.80
2017-09-04T23:23:06.632Z,14.80
2017-09-04T23:25:35.292Z,14.70
2017-09-04T23:28:04.151Z,14.70
2017-09-04T23:30:33.036Z,14.70
2017-09-04T23:33:01.890Z,14.70
2017-09-04T23:35:30.757Z,14.70
2017-09-04T23:37:59.603Z,14.70
2017-09-04T23:40:28.252Z,14.70
2017-09-04T23:42:57.101Z,14.70
2017-09-04T23:45:25.968Z,14.60
2017-09-04T23:47:54.624Z,14.60
2017-09-04T23:50:23.479Z,14.50
2017-09-04T23:52:52.139Z,14.50
2017-09-04T23:55:20.799Z,14.50
2017-09-04T23:57:49.461Z,14.50
